Hlavní strana
METAR-TAF:

METAR-TAF

Letiště :

Lonesome Pine Airport

Wise, Virginie, Spojené státy americké

zeměpisná šířka: 36-59N, zeměpisná délka: 082-32W, výška: 817 m

Aktuální stav počasí

Zpráva byla vytvořena před 21 hodinami a 41 minutami, v 23:55 UTC
Jižní vítr 6 kt
Teplota 25°C
Vlhkost vzduchu 74%
Tlak 1019 hPa
Viditelnost: 16.1 km
Jasno

METAR: KLNP 202355Z AUTO 17006KT 10SM CLR 25/20 A3008 RMK AO2 LTG DSNT SE

Čas: 17:36 (21:36 UTC)


TAF: chybějící

Stav a předpovědi počasí z více než 4 000 letišť (zprávy METAR a TAF).

Červené a žluté tečky na mapě představují dostupné meteorologické stanice.

Když kurzor umístíte na tečku, zobrazí se název stanice.

Pak kliknutím zobrazíte stav a předpověď počasí.

Chcete-li změnit mapu, kliknutím na zelené tlačítko se znaménkem +mapu přiblížíte, kliknutím na zelené tlačítko se znaménkem – mapu oddálíte a kliknutím na zelené šipky přejdete na sousední mapy.


METAR-TAF: